Time;durP1;ratioP1;P1;durP2;ratioP2;P2;SDS_P1;SDS_P2;PMS_P1;PMS_P2;Temp;Humidity;BMP_temperature;BMP_pressure;BME280_temperature;BME280_humidity;BME280_pressure;Samples;Min_cycle;Max_cycle;Signal;HPM_P1;HPM_P2
2023/10/25 00:02:19;;;;;;;8.13;4.32;;;;;;;13.09;96.28;99472.63;5111733;28;20031;-67
2023/10/25 00:04:45;;;;;;;10.07;4.97;;;;;;;13.03;96.48;99476.88;5092373;28;20457;-67
2023/10/25 00:07:10;;;;;;;9.75;4.38;;;;;;;13.11;96.46;99481.09;5091035;28;20118;-67
2023/10/25 00:09:36;;;;;;;9.98;4.55;;;;;;;13.00;97.19;99483.09;5107706;28;20047;-68
2023/10/25 00:12:01;;;;;;;9.65;4.43;;;;;;;12.95;97.74;99484.28;5094278;28;20033;-68
2023/10/25 00:14:27;;;;;;;7.47;3.67;;;;;;;12.96;97.30;99480.44;5106327;28;20038;-67
2023/10/25 00:16:53;;;;;;;9.32;5.05;;;;;;;13.02;96.89;99486.19;5108471;28;20024;-67
2023/10/25 00:19:18;;;;;;;11.10;4.75;;;;;;;13.01;96.43;99487.34;5104580;28;20023;-67
2023/10/25 00:21:44;;;;;;;9.10;4.22;;;;;;;12.85;97.42;99487.09;5106594;28;20024;-67
2023/10/25 00:24:09;;;;;;;8.15;4.68;;;;;;;12.85;97.66;99501.38;5090210;28;20487;-67
2023/10/25 00:26:35;;;;;;;8.90;4.57;;;;;;;12.89;97.76;99494.00;5110693;28;20050;-68
2023/10/25 00:29:00;;;;;;;8.93;4.03;;;;;;;12.93;96.96;99494.72;5073282;28;20080;-68
2023/10/25 00:31:26;;;;;;;9.18;4.70;;;;;;;12.89;97.44;99494.00;5104100;28;20023;-67
2023/10/25 00:33:51;;;;;;;11.50;5.88;;;;;;;12.90;97.73;99490.13;5089958;28;20460;-67
2023/10/25 00:36:17;;;;;;;9.05;4.03;;;;;;;12.91;97.13;99499.03;5109840;28;20040;-67
2023/10/25 00:38:43;;;;;;;10.25;4.47;;;;;;;12.91;96.92;99504.44;5107996;28;20039;-68
2023/10/25 00:41:08;;;;;;;13.52;4.78;;;;;;;12.87;97.00;99490.16;5088959;28;20032;-67
2023/10/25 00:43:35;;;;;;;8.02;4.47;;;;;;;12.85;96.85;99495.22;5109078;28;20498;-67
2023/10/25 00:46:12;;;;;;;7.78;3.97;;;;;;;12.94;95.99;99498.22;5106266;28;20435;-67
2023/10/25 00:48:45;;;;;;;9.18;4.05;;;;;;;12.83;96.35;99494.84;5106034;28;20027;-67
2023/10/25 00:51:15;;;;;;;10.00;4.45;;;;;;;12.81;96.25;99497.16;5084466;28;20035;-68
2023/10/25 00:53:42;;;;;;;11.05;4.45;;;;;;;12.76;96.23;99492.16;5091407;28;20023;-68
2023/10/25 00:56:11;;;;;;;7.85;4.57;;;;;;;12.74;96.31;99495.28;5091724;28;20569;-68
2023/10/25 00:58:38;;;;;;;9.45;4.45;;;;;;;12.79;96.45;99499.50;5075062;28;20036;-68
2023/10/25 01:01:04;;;;;;;10.05;4.68;;;;;;;12.78;95.40;99508.75;5108232;28;20089;-68
2023/10/25 01:03:30;;;;;;;9.82;5.32;;;;;;;12.79;96.02;99507.59;5092189;28;20479;-68
2023/10/25 01:05:55;;;;;;;8.70;4.47;;;;;;;12.85;95.63;99500.59;5107822;28;20042;-68
2023/10/25 01:08:22;;;;;;;9.73;4.45;;;;;;;12.85;95.25;99498.69;5070944;28;20036;-68
2023/10/25 01:10:53;;;;;;;10.25;5.15;;;;;;;12.78;95.85;99500.66;5085928;28;20105;-68
2023/10/25 01:13:19;;;;;;;6.32;3.75;;;;;;;12.72;95.60;99504.97;5091391;28;20082;-68
2023/10/25 01:15:45;;;;;;;8.48;4.60;;;;;;;12.66;95.98;99505.38;5088168;28;20536;-68
2023/10/25 01:18:11;;;;;;;12.20;4.80;;;;;;;12.67;95.94;99506.91;5106223;28;20038;-69
2023/10/25 01:20:37;;;;;;;10.38;4.32;;;;;;;12.70;95.53;99506.09;5090353;28;20027;-68
2023/10/25 01:23:02;;;;;;;15.23;5.03;;;;;;;12.65;96.18;99503.84;5109089;28;20048;-68
2023/10/25 01:25:28;;;;;;;8.73;4.38;;;;;;;12.64;95.69;99502.28;5107803;28;20123;-67
2023/10/25 01:27:53;;;;;;;12.32;4.95;;;;;;;12.57;96.27;99496.16;5104765;28;20640;-68
2023/10/25 01:30:19;;;;;;;12.05;4.65;;;;;;;12.55;95.64;99493.88;5110685;28;20514;-67
2023/10/25 01:32:44;;;;;;;7.40;4.03;;;;;;;12.58;95.86;99487.66;5110775;28;20026;-67
2023/10/25 01:35:13;;;;;;;14.38;4.50;;;;;;;12.59;94.77;99485.75;5109610;28;20423;-67
2023/10/25 01:37:39;;;;;;;7.57;4.15;;;;;;;12.49;94.78;99484.66;5088034;28;20077;-68
2023/10/25 01:40:05;;;;;;;9.57;4.78;;;;;;;12.51;94.72;99481.53;5106844;28;20044;-68
2023/10/25 01:42:31;;;;;;;11.73;3.90;;;;;;;12.50;94.31;99480.78;5092083;28;20412;-69
2023/10/25 01:44:56;;;;;;;7.38;4.43;;;;;;;12.46;93.64;99487.38;5108170;28;20024;-67
2023/10/25 01:47:22;;;;;;;7.68;3.88;;;;;;;12.42;93.67;99490.09;5073605;28;20385;-67
2023/10/25 01:49:49;;;;;;;7.97;4.20;;;;;;;12.37;93.96;99476.22;5110385;28;20032;-67
2023/10/25 01:52:14;;;;;;;7.90;4.28;;;;;;;12.36;93.48;99488.97;5092175;28;20065;-67
2023/10/25 01:54:42;;;;;;;6.35;3.70;;;;;;;12.33;93.24;99494.41;5110524;28;20502;-68
2023/10/25 01:57:10;;;;;;;10.63;5.63;;;;;;;12.35;92.97;99498.22;5110538;28;20103;-68
2023/10/25 01:59:36;;;;;;;9.32;4.38;;;;;;;12.35;92.16;99487.44;5105053;28;20096;-67
2023/10/25 02:02:01;;;;;;;9.20;3.92;;;;;;;12.31;92.64;99494.78;5072582;28;20035;-67
2023/10/25 02:04:27;;;;;;;8.55;4.03;;;;;;;12.21;92.41;99492.16;5090381;28;20039;-68
2023/10/25 02:06:52;;;;;;;8.18;3.92;;;;;;;12.21;92.45;99487.53;5074025;28;20073;-68
2023/10/25 02:09:18;;;;;;;7.57;3.88;;;;;;;12.18;92.49;99474.81;5091300;28;20035;-67
2023/10/25 02:11:44;;;;;;;11.02;4.82;;;;;;;12.14;93.59;99479.47;5107641;28;20031;-68
2023/10/25 02:14:10;;;;;;;6.45;3.85;;;;;;;12.17;93.91;99484.09;5092701;28;20042;-68
2023/10/25 02:16:35;;;;;;;10.43;4.05;;;;;;;12.18;93.74;99487.53;5075609;28;20476;-68
2023/10/25 02:19:01;;;;;;;15.95;4.85;;;;;;;12.16;93.79;99487.94;5094733;28;20169;-69
2023/10/25 02:21:27;;;;;;;10.77;4.38;;;;;;;12.20;93.39;99488.69;5111119;28;20530;-68
2023/10/25 02:23:55;;;;;;;10.98;4.97;;;;;;;12.15;93.28;99486.41;5077371;28;20036;-68
2023/10/25 02:26:20;;;;;;;7.63;3.92;;;;;;;12.11;94.34;99482.97;5109647;28;20032;-68
2023/10/25 02:28:46;;;;;;;11.30;5.07;;;;;;;11.97;94.99;99487.63;5111811;28;20042;-68
2023/10/25 02:31:12;;;;;;;8.70;4.65;;;;;;;12.04;95.19;99474.88;5111251;27;20177;-68
2023/10/25 02:33:38;;;;;;;8.80;4.22;;;;;;;11.95;95.58;99477.25;5089852;27;20041;-67
2023/10/25 02:36:04;;;;;;;8.95;4.40;;;;;;;12.08;95.21;99477.59;5113912;27;20042;-67
2023/10/25 02:38:30;;;;;;;11.10;4.85;;;;;;;12.03;94.79;99476.06;5094201;27;20035;-67
2023/10/25 02:40:56;;;;;;;6.65;4.05;;;;;;;12.00;94.84;99476.06;5112987;27;20508;-67
2023/10/25 02:43:21;;;;;;;11.00;4.43;;;;;;;12.03;94.88;99484.16;5091041;28;20019;-67
2023/10/25 02:45:47;;;;;;;9.10;4.53;;;;;;;12.04;95.12;99482.22;5082801;28;20407;-67
2023/10/25 02:48:13;;;;;;;10.95;3.95;;;;;;;12.08;94.24;99483.72;5089352;28;20053;-67
2023/10/25 02:50:39;;;;;;;12.60;4.95;;;;;;;12.07;94.25;99495.69;5089007;28;20441;-67
2023/10/25 02:53:04;;;;;;;10.23;4.63;;;;;;;12.12;94.15;99495.28;5105999;27;20032;-67
2023/10/25 02:55:30;;;;;;;11.40;4.43;;;;;;;12.05;94.73;99484.53;5110807;27;20395;-67
2023/10/25 02:57:56;;;;;;;12.55;5.53;;;;;;;12.08;94.25;99481.03;5111066;27;20432;-68
2023/10/25 03:00:21;;;;;;;9.40;4.90;;;;;;;12.07;94.73;99486.81;5093415;28;20035;-67
2023/10/25 03:02:47;;;;;;;9.88;5.00;;;;;;;12.03;95.33;99484.16;5109375;28;20030;-67
2023/10/25 03:05:12;;;;;;;12.25;4.45;;;;;;;11.90;96.25;99480.34;5095328;28;20031;-67
2023/10/25 03:07:38;;;;;;;12.25;5.45;;;;;;;11.87;96.30;99481.13;5090523;28;20071;-67
2023/10/25 03:10:03;;;;;;;11.57;5.07;;;;;;;11.95;96.63;99482.63;5110084;28;20456;-67
2023/10/25 03:12:30;;;;;;;11.60;5.13;;;;;;;11.78;97.39;99475.41;5112570;28;20035;-67
2023/10/25 03:14:55;;;;;;;12.48;5.15;;;;;;;11.87;97.07;99483.03;5111067;28;20031;-67
2023/10/25 03:17:21;;;;;;;9.85;5.20;;;;;;;11.90;96.48;99482.28;5094203;28;20624;-67
2023/10/25 03:19:47;;;;;;;11.93;5.30;;;;;;;12.00;96.55;99484.91;5105831;28;20028;-67
2023/10/25 03:22:13;;;;;;;12.40;5.63;;;;;;;12.01;95.90;99480.28;5091678;28;20052;-67
2023/10/25 03:24:41;;;;;;;10.27;4.82;;;;;;;11.95;96.59;99476.47;5089514;28;20146;-67
2023/10/25 03:27:09;;;;;;;11.93;5.43;;;;;;;11.90;96.50;99480.34;5109171;28;20458;-67
2023/10/25 03:29:36;;;;;;;10.10;5.15;;;;;;;11.91;96.75;99484.59;5107988;28;20103;-67
2023/10/25 03:32:02;;;;;;;10.75;5.00;;;;;;;11.77;97.05;99473.84;5090021;28;20054;-67
2023/10/25 03:34:28;;;;;;;12.38;5.65;;;;;;;11.74;97.59;99480.03;5093243;28;20020;-67
2023/10/25 03:36:54;;;;;;;16.85;5.97;;;;;;;11.81;98.05;99471.91;5110702;28;20043;-67
2023/10/25 03:39:22;;;;;;;14.20;5.50;;;;;;;11.82;98.13;99473.44;5106281;28;20072;-67
2023/10/25 03:41:47;;;;;;;15.82;5.72;;;;;;;11.78;98.28;99480.78;5074273;28;20032;-67
2023/10/25 03:44:13;;;;;;;13.77;5.32;;;;;;;11.78;98.96;99478.09;5091168;28;20407;-67
2023/10/25 03:46:39;;;;;;;12.88;5.28;;;;;;;11.89;98.77;99475.34;5110769;28;20111;-67
2023/10/25 03:49:05;;;;;;;11.10;5.55;;;;;;;11.84;98.18;99481.91;5071462;28;20024;-68
2023/10/25 03:51:31;;;;;;;10.55;4.57;;;;;;;11.93;98.56;99484.19;5110221;28;20042;-67
2023/10/25 03:53:57;;;;;;;12.10;5.25;;;;;;;11.87;98.89;99475.72;5108590;28;20035;-68
2023/10/25 03:56:22;;;;;;;12.15;4.60;;;;;;;11.70;98.55;99480.06;5102113;28;20020;-68
2023/10/25 03:58:48;;;;;;;11.38;4.55;;;;;;;11.69;99.88;99470.41;5088289;28;20114;-68
2023/10/25 04:01:14;;;;;;;12.35;5.00;;;;;;;11.70;99.64;99465.78;5087015;28;20039;-67
2023/10/25 04:03:39;;;;;;;12.00;4.65;;;;;;;11.79;98.74;99480.38;5106084;27;20027;-67
2023/10/25 04:06:05;;;;;;;9.80;4.35;;;;;;;11.78;99.15;99473.47;5109124;28;20515;-67
2023/10/25 04:08:31;;;;;;;13.60;4.88;;;;;;;11.79;99.27;99474.22;5108508;28;20034;-68
2023/10/25 04:10:58;;;;;;;10.75;4.20;;;;;;;11.64;99.48;99470.00;5111551;28;20036;-67
2023/10/25 04:13:24;;;;;;;11.20;5.30;;;;;;;11.67;99.81;99470.03;5112137;28;20175;-67
2023/10/25 04:16:00;;;;;;;9.75;5.15;;;;;;;11.70;99.86;99465.78;5111253;28;20031;-68
2023/10/25 04:18:28;;;;;;;13.35;5.13;;;;;;;11.71;99.47;99468.09;5093105;28;20039;-67
2023/10/25 04:20:57;;;;;;;12.75;5.72;;;;;;;11.64;99.98;99470.78;5111913;28;20515;-67
2023/10/25 04:23:24;;;;;;;12.20;5.32;;;;;;;11.75;99.59;99468.06;5111779;28;20067;-68
2023/10/25 04:25:49;;;;;;;14.07;5.07;;;;;;;11.69;98.77;99464.25;5107411;28;20023;-68
2023/10/25 04:28:18;;;;;;;10.43;5.32;;;;;;;11.68;98.92;99470.81;5107451;28;20460;-68
2023/10/25 04:30:45;;;;;;;16.42;5.82;;;;;;;11.63;99.71;99468.50;5091421;28;20042;-67
2023/10/25 04:33:11;;;;;;;10.30;5.15;;;;;;;11.68;100.00;99462.72;5111202;28;20060;-67
2023/10/25 04:35:37;;;;;;;10.00;4.85;;;;;;;11.74;99.73;99461.16;5111550;28;20404;-68
2023/10/25 04:38:02;;;;;;;15.52;5.43;;;;;;;11.85;98.07;99471.88;5083395;28;20018;-67
2023/10/25 04:40:29;;;;;;;11.93;5.15;;;;;;;11.77;98.03;99469.22;5108268;28;20035;-68
2023/10/25 04:42:54;;;;;;;12.77;4.85;;;;;;;11.76;97.55;99464.22;5111625;28;20031;-67
2023/10/25 04:45:20;;;;;;;10.23;5.05;;;;;;;11.65;97.60;99469.66;5111322;28;20488;-66
2023/10/25 04:47:46;;;;;;;11.52;5.30;;;;;;;11.58;97.97;99463.47;5109387;28;20461;-67
2023/10/25 04:50:11;;;;;;;10.05;5.00;;;;;;;11.64;98.39;99456.53;5106204;28;20032;-68
2023/10/25 04:52:37;;;;;;;15.13;6.13;;;;;;;11.46;98.21;99450.41;5110301;28;20512;-67
2023/10/25 04:55:03;;;;;;;14.23;5.15;;;;;;;11.53;98.10;99453.09;5092449;28;20058;-67
2023/10/25 04:57:28;;;;;;;9.05;4.30;;;;;;;11.57;97.94;99456.56;5092465;28;20023;-69
2023/10/25 04:59:54;;;;;;;12.68;5.60;;;;;;;11.58;97.90;99450.00;5110456;28;20042;-69
2023/10/25 05:02:19;;;;;;;11.65;5.25;;;;;;;11.52;98.60;99451.56;5107911;28;20036;-68
2023/10/25 05:04:45;;;;;;;11.05;4.65;;;;;;;11.62;97.76;99448.06;5108470;28;20047;-67
2023/10/25 05:07:11;;;;;;;11.02;4.55;;;;;;;11.59;97.30;99452.31;5109476;28;20028;-67
2023/10/25 05:09:37;;;;;;;11.52;4.97;;;;;;;11.57;97.68;99446.56;5091807;28;20032;-67
2023/10/25 05:12:07;;;;;;;9.68;4.75;;;;;;;11.60;97.41;99445.75;5108903;28;20047;-67
2023/10/25 05:14:34;;;;;;;12.47;5.33;;;;;;;11.68;96.48;99451.94;5111093;28;20461;-67
2023/10/25 05:17:00;;;;;;;13.00;5.28;;;;;;;11.64;95.91;99445.75;5090666;28;20008;-67
2023/10/25 05:19:26;;;;;;;9.35;4.18;;;;;;;11.62;96.41;99453.44;5089404;28;20046;-67
2023/10/25 05:21:54;;;;;;;12.00;5.43;;;;;;;11.54;96.50;99441.94;5109274;28;20039;-68
2023/10/25 05:24:20;;;;;;;13.25;5.45;;;;;;;11.47;97.11;99447.34;5108824;28;20113;-67
2023/10/25 05:26:46;;;;;;;13.20;5.65;;;;;;;11.47;97.13;99446.56;5109770;28;20494;-68
2023/10/25 05:29:12;;;;;;;10.30;4.57;;;;;;;11.48;97.02;99442.72;5110371;28;20036;-67
2023/10/25 05:31:42;;;;;;;10.55;4.07;;;;;;;11.42;97.61;99447.72;5104835;28;20081;-67
2023/10/25 05:34:09;;;;;;;10.98;4.72;;;;;;;11.45;96.99;99454.28;5109092;28;20050;-67
2023/10/25 05:36:35;;;;;;;13.88;5.00;;;;;;;11.47;96.78;99454.66;5107812;28;20422;-67
2023/10/25 05:39:00;;;;;;;11.57;4.97;;;;;;;11.47;96.48;99451.97;5105625;28;20126;-68
2023/10/25 05:41:28;;;;;;;8.88;3.80;;;;;;;11.49;96.47;99446.97;5107157;28;20032;-67
2023/10/25 05:44:05;;;;;;;10.43;4.10;;;;;;;11.49;95.87;99457.75;5105286;28;20471;-67
2023/10/25 05:46:31;;;;;;;10.40;4.95;;;;;;;11.37;96.19;99450.06;5112280;27;20100;-68
2023/10/25 05:48:57;;;;;;;11.02;5.07;;;;;;;11.48;96.08;99450.78;5114153;27;20036;-68
2023/10/25 05:51:22;;;;;;;10.18;4.60;;;;;;;11.47;96.40;99450.06;5091790;27;20061;-69
2023/10/25 05:53:49;;;;;;;10.15;4.65;;;;;;;11.45;96.19;99452.38;5115842;27;20035;-67
2023/10/25 05:56:15;;;;;;;9.57;4.53;;;;;;;11.55;95.70;99466.97;5076172;28;20086;-67
2023/10/25 05:58:41;;;;;;;8.90;4.22;;;;;;;11.52;95.58;99454.25;5081197;28;20020;-68
2023/10/25 06:01:09;;;;;;;8.80;4.40;;;;;;;11.45;96.22;99465.84;5093398;28;20552;-68
2023/10/25 06:03:35;;;;;;;13.13;5.05;;;;;;;11.47;95.82;99462.75;5092797;27;20543;-68
2023/10/25 06:06:02;;;;;;;8.68;4.32;;;;;;;11.46;95.91;99463.91;5108984;27;20106;-69
2023/10/25 06:08:28;;;;;;;8.65;4.43;;;;;;;11.50;95.61;99461.97;5092185;28;20058;-68
2023/10/25 06:10:54;;;;;;;10.93;4.95;;;;;;;11.42;96.38;99471.25;5111554;28;20484;-69
2023/10/25 06:13:20;;;;;;;9.23;4.40;;;;;;;11.42;95.55;99463.91;5109851;27;20393;-68
2023/10/25 06:15:46;;;;;;;10.80;4.57;;;;;;;11.41;95.82;99470.47;5116767;27;20038;-68
2023/10/25 06:18:12;;;;;;;10.50;5.10;;;;;;;11.45;95.65;99475.84;5097924;27;20063;-69
2023/10/25 06:20:37;;;;;;;10.73;5.00;;;;;;;11.37;96.08;99466.25;5094224;28;20027;-69
2023/10/25 06:23:03;;;;;;;11.90;4.78;;;;;;;11.38;95.54;99468.53;5112725;27;20039;-68
2023/10/25 06:25:32;;;;;;;10.50;4.35;;;;;;;11.28;95.44;99482.06;5107169;27;22046;-68
2023/10/25 06:27:59;;;;;;;8.30;3.88;;;;;;;11.29;96.20;99472.81;5110275;27;20499;-68
2023/10/25 06:30:28;;;;;;;9.68;4.90;;;;;;;11.30;96.73;99469.75;5106533;27;20662;-68
2023/10/25 06:32:58;;;;;;;9.30;3.80;;;;;;;11.35;96.62;99474.72;5112564;27;20093;-68
2023/10/25 06:35:23;;;;;;;7.88;3.80;;;;;;;11.34;96.68;99477.81;5094346;28;20118;-68
2023/10/25 06:37:49;;;;;;;10.15;3.85;;;;;;;11.37;96.22;99477.03;5110046;27;20162;-68
2023/10/25 06:40:15;;;;;;;7.60;3.63;;;;;;;11.37;95.93;99474.31;5112975;27;20047;-68
2023/10/25 06:42:40;;;;;;;8.27;4.50;;;;;;;11.43;95.77;99470.06;5089795;28;20032;-68
2023/10/25 06:45:07;;;;;;;7.95;3.67;;;;;;;11.50;95.25;99470.06;5088174;28;20054;-68
2023/10/25 06:47:32;;;;;;;8.95;3.58;;;;;;;11.54;94.90;99473.50;5110242;27;20035;-69
2023/10/25 06:49:58;;;;;;;6.30;3.20;;;;;;;11.58;94.74;99471.56;5111558;27;20602;-68
2023/10/25 06:52:24;;;;;;;12.43;4.82;;;;;;;11.54;95.21;99468.88;5089444;28;20036;-68
2023/10/25 06:54:49;;;;;;;9.73;4.07;;;;;;;11.52;95.37;99467.72;5092808;28;20031;-69
2023/10/25 06:57:15;;;;;;;10.40;4.32;;;;;;;11.60;95.22;99471.94;5111752;28;20042;-68
2023/10/25 06:59:41;;;;;;;12.63;4.85;;;;;;;11.43;95.83;99462.00;5107584;28;20074;-67
2023/10/25 07:02:28;;;;;;;9.00;4.28;;;;;;;11.41;97.00;99469.69;5111836;28;20127;-67
2023/10/25 07:05:00;;;;;;;7.60;3.65;;;;;;;11.51;96.35;99463.50;5111064;28;20511;-67
2023/10/25 07:07:33;;;;;;;11.27;4.05;;;;;;;11.55;96.71;99459.66;5084718;28;20042;-67
2023/10/25 07:09:59;;;;;;;9.43;4.25;;;;;;;11.54;96.79;99452.72;5112238;28;20031;-67
2023/10/25 07:12:24;;;;;;;12.07;5.68;;;;;;;11.64;97.00;99453.84;5113557;28;20023;-67
2023/10/25 07:14:50;;;;;;;8.25;4.72;;;;;;;11.81;96.54;99454.97;5089813;28;20039;-68
2023/10/25 07:17:15;;;;;;;9.45;5.05;;;;;;;11.85;96.31;99448.38;5109842;28;20040;-67
2023/10/25 07:19:43;;;;;;;10.18;4.15;;;;;;;11.88;96.23;99457.63;5107621;28;20031;-67
2023/10/25 07:22:09;;;;;;;11.30;4.13;;;;;;;11.98;96.11;99451.41;5109256;28;20121;-68
2023/10/25 07:24:35;;;;;;;9.70;4.63;;;;;;;12.03;95.95;99451.75;5109122;28;20023;-67
2023/10/25 07:27:00;;;;;;;11.93;5.07;;;;;;;12.01;95.91;99451.41;5111711;28;20064;-67
2023/10/25 07:29:26;;;;;;;11.18;4.50;;;;;;;12.08;96.61;99454.03;5110783;28;20484;-67
2023/10/25 07:31:51;;;;;;;8.80;4.90;;;;;;;12.20;96.24;99450.13;5110448;28;20032;-67
2023/10/25 07:34:17;;;;;;;12.38;5.10;;;;;;;12.17;96.46;99449.00;5106539;28;20027;-68
2023/10/25 07:36:43;;;;;;;9.48;4.43;;;;;;;12.13;96.17;99450.94;5093221;28;20106;-67
2023/10/25 07:39:08;;;;;;;9.30;4.63;;;;;;;12.11;96.77;99457.88;5112304;28;20468;-67
2023/10/25 07:41:34;;;;;;;7.70;3.95;;;;;;;12.21;96.67;99455.16;5109304;28;20051;-67
2023/10/25 07:44:00;;;;;;;6.75;3.80;;;;;;;12.23;97.54;99452.03;5109505;28;20490;-68
2023/10/25 07:46:26;;;;;;;6.47;3.85;;;;;;;12.31;97.06;99459.69;5111923;28;20031;-67
2023/10/25 07:48:51;;;;;;;10.70;4.07;;;;;;;12.38;97.78;99456.97;5092785;28;20028;-67
2023/10/25 07:51:17;;;;;;;10.82;4.88;;;;;;;12.47;97.13;99449.19;5109170;28;20618;-67
2023/10/25 07:53:42;;;;;;;9.52;3.83;;;;;;;12.53;96.40;99453.00;5093077;28;20160;-67
2023/10/25 07:56:08;;;;;;;6.28;3.58;;;;;;;12.60;97.04;99455.63;5109090;28;20032;-67
2023/10/25 07:58:33;;;;;;;11.38;4.97;;;;;;;12.74;97.41;99448.59;5090627;28;20024;-68
2023/10/25 08:00:59;;;;;;;11.65;5.07;;;;;;;12.73;96.73;99447.06;5108090;28;20027;-67
2023/10/25 08:03:26;;;;;;;10.27;4.60;;;;;;;12.89;96.68;99439.22;5109829;28;20059;-68
2023/10/25 08:05:54;;;;;;;8.13;4.80;;;;;;;12.93;96.74;99448.06;5107916;28;20102;-67
2023/10/25 08:08:19;;;;;;;7.85;4.05;;;;;;;12.95;96.56;99446.47;5110836;28;20027;-68
2023/10/25 08:10:45;;;;;;;7.32;3.53;;;;;;;12.97;96.41;99449.53;5108868;28;20475;-67
2023/10/25 08:13:10;;;;;;;6.05;3.47;;;;;;;13.02;96.46;99453.75;5093143;28;20035;-67
2023/10/25 08:15:36;;;;;;;9.43;4.03;;;;;;;12.98;96.39;99447.59;5109128;28;20046;-68
2023/10/25 08:18:02;;;;;;;9.25;3.63;;;;;;;12.87;97.11;99460.44;5105558;28;20106;-67
2023/10/25 08:20:28;;;;;;;8.68;3.92;;;;;;;13.02;96.31;99451.03;5108795;28;20119;-67
2023/10/25 08:22:54;;;;;;;6.90;3.42;;;;;;;13.00;95.41;99445.28;5109163;28;20051;-67
2023/10/25 08:25:21;;;;;;;7.35;3.78;;;;;;;13.00;96.76;99454.16;5107504;28;20050;-67
2023/10/25 08:27:49;;;;;;;9.52;3.60;;;;;;;13.16;96.79;99453.66;5107876;28;20046;-67
2023/10/25 08:30:14;;;;;;;7.72;3.80;;;;;;;13.27;97.22;99457.00;5110559;28;20031;-69
2023/10/25 08:32:40;;;;;;;9.30;4.07;;;;;;;13.30;95.41;99453.50;5109213;28;20055;-68
2023/10/25 08:35:06;;;;;;;9.43;3.63;;;;;;;13.40;95.71;99455.31;5093369;28;20040;-66
2023/10/25 08:37:31;;;;;;;6.28;3.10;;;;;;;13.47;95.94;99449.84;5110717;28;20077;-66
2023/10/25 08:39:59;;;;;;;8.07;4.18;;;;;;;13.63;95.76;99457.41;5110044;28;20045;-66
2023/10/25 08:42:25;;;;;;;9.43;3.83;;;;;;;13.56;94.81;99460.94;5111392;28;20033;-66
2023/10/25 08:44:50;;;;;;;7.68;4.32;;;;;;;13.57;96.03;99457.06;5093477;28;20423;-66
2023/10/25 08:47:17;;;;;;;8.10;4.00;;;;;;;13.54;95.19;99457.88;5107139;28;20028;-67
2023/10/25 08:49:43;;;;;;;11.18;4.13;;;;;;;13.48;95.85;99462.19;5106294;28;20027;-67
2023/10/25 08:52:11;;;;;;;8.15;3.33;;;;;;;13.49;96.15;99452.91;5110790;28;20399;-66
2023/10/25 08:54:36;;;;;;;9.35;3.72;;;;;;;13.54;95.87;99463.28;5108297;28;20035;-67
2023/10/25 08:57:04;;;;;;;10.02;4.10;;;;;;;13.72;95.80;99463.09;5089929;28;20031;-67
2023/10/25 08:59:30;;;;;;;11.23;3.65;;;;;;;13.71;94.95;99465.00;5091244;28;20040;-67
2023/10/25 09:01:56;;;;;;;7.07;3.50;;;;;;;13.73;94.65;99468.09;5092849;28;20034;-68
2023/10/25 09:04:21;;;;;;;8.43;3.67;;;;;;;13.86;94.37;99471.78;5083444;28;20047;-67
2023/10/25 09:06:47;;;;;;;8.52;3.83;;;;;;;13.91;94.13;99478.69;5092362;28;20024;-67
2023/10/25 09:09:15;;;;;;;7.10;3.78;;;;;;;13.88;94.00;99477.56;5074813;28;20035;-67
2023/10/25 09:11:43;;;;;;;9.18;4.25;;;;;;;13.98;93.70;99475.88;5110659;28;20093;-67
2023/10/25 09:14:10;;;;;;;7.38;3.25;;;;;;;14.07;93.43;99466.09;5109762;28;20032;-67
2023/10/25 09:16:38;;;;;;;6.70;3.35;;;;;;;13.95;92.21;99477.50;5103991;28;20422;-67
2023/10/25 09:19:05;;;;;;;7.70;3.47;;;;;;;14.09;92.75;99473.84;5100036;28;20023;-67
2023/10/25 09:21:30;;;;;;;6.88;3.20;;;;;;;14.25;93.20;99477.47;5086969;28;20080;-67
2023/10/25 09:23:59;;;;;;;9.57;3.78;;;;;;;14.35;93.43;99468.47;5106893;28;20813;-67
2023/10/25 09:26:25;;;;;;;12.30;3.75;;;;;;;14.51;92.12;99475.19;5090978;28;20126;-67
2023/10/25 09:28:53;;;;;;;6.32;3.58;;;;;;;14.50;92.00;99460.88;5103043;28;20032;-67
2023/10/25 09:31:26;;;;;;;5.25;3.20;;;;;;;14.26;91.07;99460.06;5108672;28;20035;-68
2023/10/25 09:33:52;;;;;;;5.95;3.00;;;;;;;14.42;91.55;99451.31;5089984;28;20043;-67
2023/10/25 09:36:19;;;;;;;10.07;3.58;;;;;;;14.43;91.26;99444.75;5110286;28;20038;-67
2023/10/25 09:38:45;;;;;;;5.95;2.42;;;;;;;14.60;91.50;99453.75;5089028;28;20566;-68
2023/10/25 09:41:13;;;;;;;6.38;3.58;;;;;;;14.70;90.06;99450.13;5090999;28;20028;-67
2023/10/25 09:43:45;;;;;;;5.40;2.97;;;;;;;14.67;90.02;99449.03;5106566;28;20036;-68
2023/10/25 09:46:15;;;;;;;7.93;2.80;;;;;;;14.91;89.18;99447.84;5108441;28;20031;-66
2023/10/25 09:48:47;;;;;;;10.52;3.83;;;;;;;14.92;90.14;99443.19;5107893;28;20051;-67
2023/10/25 09:51:19;;;;;;;8.15;3.55;;;;;;;14.94;89.97;99438.84;5108116;28;20134;-67
2023/10/25 09:53:57;;;;;;;6.57;3.25;;;;;;;15.11;89.12;99435.09;5109677;28;20042;-67
2023/10/25 09:56:23;;;;;;;5.38;2.92;;;;;;;15.28;89.10;99444.06;5107301;28;20492;-67
2023/10/25 09:58:50;;;;;;;5.55;3.17;;;;;;;15.49;88.57;99442.94;5109135;28;20031;-67
2023/10/25 10:01:16;;;;;;;6.97;2.80;;;;;;;15.43;88.95;99448.06;5108045;28;20039;-67
2023/10/25 10:04:05;;;;;;;5.57;2.85;;;;;;;15.43;87.30;99453.50;5088330;28;20028;-68
2023/10/25 10:07:29;;;;;;;5.47;2.58;;;;;;;15.40;88.25;99448.91;5091912;28;20035;-68
2023/10/25 10:10:13;;;;;;;6.78;3.42;;;;;;;15.37;87.65;99439.63;5081606;28;20047;-68
2023/10/25 10:12:39;;;;;;;5.32;3.03;;;;;;;15.24;88.43;99438.72;5104844;28;20031;-68
2023/10/25 10:15:05;;;;;;;4.93;2.88;;;;;;;15.14;89.47;99428.06;5108503;28;20026;-68
2023/10/25 10:17:36;;;;;;;4.25;2.63;;;;;;;15.19;89.85;99438.44;5109085;28;20026;-68
2023/10/25 10:20:05;;;;;;;4.75;2.35;;;;;;;15.22;89.62;99427.53;5100841;28;20799;-68
2023/10/25 10:22:31;;;;;;;5.03;3.00;;;;;;;15.31;88.33;99429.69;5106569;28;20039;-66
2023/10/25 10:25:04;;;;;;;5.25;2.60;;;;;;;15.46;88.74;99424.78;5104564;28;20084;-69
2023/10/25 10:27:41;;;;;;;5.47;2.67;;;;;;;15.66;88.61;99417.41;5105378;28;20032;-67
2023/10/25 10:30:30;;;;;;;5.25;2.85;;;;;;;15.74;88.82;99418.78;5085204;28;20043;-67
2023/10/25 10:32:56;;;;;;;5.55;3.25;;;;;;;15.87;88.89;99409.56;5098905;28;20496;-67
2023/10/25 10:35:22;;;;;;;4.75;2.88;;;;;;;15.85;86.75;99411.94;5112111;28;20099;-67
2023/10/25 10:37:55;;;;;;;10.15;2.55;;;;;;;15.80;86.41;99406.22;5112551;28;20103;-67
2023/10/25 10:40:21;;;;;;;7.82;3.00;;;;;;;15.74;87.23;99405.97;5094000;28;20123;-67
2023/10/25 10:42:46;;;;;;;6.43;2.75;;;;;;;15.79;87.07;99402.78;5113597;28;20103;-67
2023/10/25 10:45:17;;;;;;;6.88;2.78;;;;;;;15.88;86.10;99402.97;5113999;28;20071;-67
2023/10/25 10:48:18;;;;;;;5.90;2.88;;;;;;;15.94;86.85;99398.56;5111959;28;20092;-67
2023/10/25 10:50:44;;;;;;;5.03;2.67;;;;;;;16.05;87.25;99393.66;5108538;28;20043;-67
2023/10/25 10:53:09;;;;;;;6.35;3.15;;;;;;;16.11;86.42;99385.75;5112912;28;20032;-67
2023/10/25 10:55:40;;;;;;;6.18;2.70;;;;;;;16.17;86.44;99382.13;5107774;28;20038;-67
2023/10/25 10:58:05;;;;;;;5.88;3.05;;;;;;;16.19;86.44;99382.47;5113312;28;20023;-67
2023/10/25 11:00:31;;;;;;;4.18;2.40;;;;;;;16.22;86.79;99375.41;5112247;28;20020;-66
2023/10/25 11:03:00;;;;;;;4.15;2.60;;;;;;;16.25;86.88;99383.50;5095232;28;20046;-67
2023/10/25 11:05:26;;;;;;;3.55;2.33;;;;;;;16.37;87.16;99370.41;5111831;28;20441;-67
2023/10/25 11:07:53;;;;;;;6.07;3.03;;;;;;;16.46;85.04;99373.28;5095088;28;20024;-68
2023/10/25 11:10:19;;;;;;;6.40;3.00;;;;;;;16.35;85.04;99370.84;5112716;28;20035;-67
2023/10/25 11:12:45;;;;;;;7.47;2.40;;;;;;;16.35;86.36;99367.34;5094701;28;20028;-67
2023/10/25 11:15:11;;;;;;;5.30;2.40;;;;;;;16.40;86.04;99364.13;5095323;28;20369;-67
2023/10/25 11:17:37;;;;;;;2.97;1.88;;;;;;;16.44;84.30;99362.84;5113524;28;20043;-67
2023/10/25 11:20:03;;;;;;;14.07;2.45;;;;;;;16.52;84.35;99360.75;5107116;28;20102;-67
2023/10/25 11:22:31;;;;;;;4.07;1.80;;;;;;;16.39;85.16;99359.88;5110091;28;20127;-67
2023/10/25 11:25:06;;;;;;;2.88;1.98;;;;;;;16.37;86.86;99360.31;5108699;28;20461;-67
2023/10/25 11:27:32;;;;;;;3.00;1.55;;;;;;;16.60;85.90;99356.66;5110690;28;20497;-67
2023/10/25 11:30:00;;;;;;;2.80;1.58;;;;;;;16.61;86.31;99358.19;5092039;28;20506;-67